Terminal Aerodrome Forecast
Issued by NWS

Home | Current Version | Previous Version | Text Only | Print | Product List | Glossary Off
Versions: 1 2 3 4 5 6 7 8 9 10 11 12 13 14 15 16 17

000
FTUS43 KUNR 051532 AAA
TAFGCC
TAF AMD
KGCC 051532Z 0516/0612 33018KT P6SM OVC020
     FM052200 36018G28KT P6SM -SHRA OVC050
     FM060500 33007KT P6SM OVC050=

USA.gov is the U.S. government's official web portal to all federal, state and local government web resources and services.